sensor_id;sensor_type;location;lat;lon;timestamp;temperature;humidity
61896;DHT22;47835;52.778;5.956;2023-12-04T00:02:03;0.80;99.90
61896;DHT22;47835;52.778;5.956;2023-12-04T00:04:29;0.70;99.90
61896;DHT22;47835;52.778;5.956;2023-12-04T00:06:55;0.80;99.90
61896;DHT22;47835;52.778;5.956;2023-12-04T00:09:20;0.80;99.90
61896;DHT22;47835;52.778;5.956;2023-12-04T00:11:46;0.80;99.90
61896;DHT22;47835;52.778;5.956;2023-12-04T00:14:12;0.80;99.90
61896;DHT22;47835;52.778;5.956;2023-12-04T00:16:37;0.80;99.90
61896;DHT22;47835;52.778;5.956;2023-12-04T00:19:03;0.80;99.90
61896;DHT22;47835;52.778;5.956;2023-12-04T00:21:29;0.80;99.90
61896;DHT22;47835;52.778;5.956;2023-12-04T00:23:54;0.80;99.90
61896;DHT22;47835;52.778;5.956;2023-12-04T00:26:20;0.80;99.90
61896;DHT22;47835;52.778;5.956;2023-12-04T00:28:45;0.80;99.90
61896;DHT22;47835;52.778;5.956;2023-12-04T00:31:11;0.80;99.90
61896;DHT22;47835;52.778;5.956;2023-12-04T00:33:37;0.80;99.90
61896;DHT22;47835;52.778;5.956;2023-12-04T00:36:03;0.80;99.90
61896;DHT22;47835;52.778;5.956;2023-12-04T00:38:28;0.80;99.90
61896;DHT22;47835;52.778;5.956;2023-12-04T00:40:54;0.80;99.90
61896;DHT22;47835;52.778;5.956;2023-12-04T00:43:20;0.90;99.90
61896;DHT22;47835;52.778;5.956;2023-12-04T00:45:45;0.80;99.90
61896;DHT22;47835;52.778;5.956;2023-12-04T00:48:11;0.90;99.90
61896;DHT22;47835;52.778;5.956;2023-12-04T00:50:36;0.80;99.90
61896;DHT22;47835;52.778;5.956;2023-12-04T00:53:02;0.90;99.90
61896;DHT22;47835;52.778;5.956;2023-12-04T00:55:29;0.90;99.90
61896;DHT22;47835;52.778;5.956;2023-12-04T00:57:55;0.90;99.90
61896;DHT22;47835;52.778;5.956;2023-12-04T01:00:20;0.90;99.90
61896;DHT22;47835;52.778;5.956;2023-12-04T01:02:46;0.80;99.90
61896;DHT22;47835;52.778;5.956;2023-12-04T01:05:12;0.90;99.90
61896;DHT22;47835;52.778;5.956;2023-12-04T01:07:37;0.80;99.90
61896;DHT22;47835;52.778;5.956;2023-12-04T01:10:04;0.90;99.90
61896;DHT22;47835;52.778;5.956;2023-12-04T01:12:29;0.90;99.90
61896;DHT22;47835;52.778;5.956;2023-12-04T01:14:55;0.90;99.90
61896;DHT22;47835;52.778;5.956;2023-12-04T01:17:20;0.90;99.90
61896;DHT22;47835;52.778;5.956;2023-12-04T01:19:46;0.90;99.90
61896;DHT22;47835;52.778;5.956;2023-12-04T01:22:12;0.90;99.90
61896;DHT22;47835;52.778;5.956;2023-12-04T01:24:38;0.90;99.90
61896;DHT22;47835;52.778;5.956;2023-12-04T01:27:04;0.90;99.90
61896;DHT22;47835;52.778;5.956;2023-12-04T01:29:32;0.90;99.90
61896;DHT22;47835;52.778;5.956;2023-12-04T01:31:58;0.90;99.90
61896;DHT22;47835;52.778;5.956;2023-12-04T01:34:24;0.90;99.90
61896;DHT22;47835;52.778;5.956;2023-12-04T01:36:49;0.90;99.90
61896;DHT22;47835;52.778;5.956;2023-12-04T01:39:15;0.90;99.90
61896;DHT22;47835;52.778;5.956;2023-12-04T01:41:40;0.90;99.90
61896;DHT22;47835;52.778;5.956;2023-12-04T01:44:06;0.90;99.90
61896;DHT22;47835;52.778;5.956;2023-12-04T01:46:32;0.90;99.90
61896;DHT22;47835;52.778;5.956;2023-12-04T01:48:58;0.90;99.90
61896;DHT22;47835;52.778;5.956;2023-12-04T01:51:26;0.90;99.90
61896;DHT22;47835;52.778;5.956;2023-12-04T01:53:53;0.90;99.90
61896;DHT22;47835;52.778;5.956;2023-12-04T01:56:19;0.90;99.90
61896;DHT22;47835;52.778;5.956;2023-12-04T01:58:45;0.90;99.90
61896;DHT22;47835;52.778;5.956;2023-12-04T02:01:12;0.90;99.90
61896;DHT22;47835;52.778;5.956;2023-12-04T02:03:37;0.90;99.90
61896;DHT22;47835;52.778;5.956;2023-12-04T02:06:04;0.90;99.90
61896;DHT22;47835;52.778;5.956;2023-12-04T02:08:31;0.90;99.90
61896;DHT22;47835;52.778;5.956;2023-12-04T02:10:57;0.90;99.90
61896;DHT22;47835;52.778;5.956;2023-12-04T02:13:22;0.90;99.90
61896;DHT22;47835;52.778;5.956;2023-12-04T02:15:50;0.90;99.90
61896;DHT22;47835;52.778;5.956;2023-12-04T02:18:18;0.90;99.90
61896;DHT22;47835;52.778;5.956;2023-12-04T02:20:44;0.80;99.90
61896;DHT22;47835;52.778;5.956;2023-12-04T02:23:09;0.90;99.90
61896;DHT22;47835;52.778;5.956;2023-12-04T02:25:35;0.90;99.90
61896;DHT22;47835;52.778;5.956;2023-12-04T02:28:07;0.90;99.90
61896;DHT22;47835;52.778;5.956;2023-12-04T02:30:37;0.90;99.90
61896;DHT22;47835;52.778;5.956;2023-12-04T02:33:05;0.90;99.90
61896;DHT22;47835;52.778;5.956;2023-12-04T02:35:33;0.90;99.90
61896;DHT22;47835;52.778;5.956;2023-12-04T02:38:03;0.90;99.90
61896;DHT22;47835;52.778;5.956;2023-12-04T02:40:29;0.90;99.90
61896;DHT22;47835;52.778;5.956;2023-12-04T02:42:55;0.90;99.90
61896;DHT22;47835;52.778;5.956;2023-12-04T02:45:21;0.90;99.90
61896;DHT22;47835;52.778;5.956;2023-12-04T02:47:46;0.90;99.90
61896;DHT22;47835;52.778;5.956;2023-12-04T02:50:12;0.90;99.90
61896;DHT22;47835;52.778;5.956;2023-12-04T02:52:37;0.90;99.90
61896;DHT22;47835;52.778;5.956;2023-12-04T02:55:03;0.90;99.90
61896;DHT22;47835;52.778;5.956;2023-12-04T02:57:29;0.90;99.90
61896;DHT22;47835;52.778;5.956;2023-12-04T02:59:55;0.90;99.90
61896;DHT22;47835;52.778;5.956;2023-12-04T03:02:21;0.90;99.90
61896;DHT22;47835;52.778;5.956;2023-12-04T03:04:46;0.90;99.90
61896;DHT22;47835;52.778;5.956;2023-12-04T03:07:12;0.90;99.90
61896;DHT22;47835;52.778;5.956;2023-12-04T03:09:38;0.90;99.90
61896;DHT22;47835;52.778;5.956;2023-12-04T03:12:04;0.90;99.90
61896;DHT22;47835;52.778;5.956;2023-12-04T03:14:29;0.90;99.90
61896;DHT22;47835;52.778;5.956;2023-12-04T03:16:55;0.90;99.90
61896;DHT22;47835;52.778;5.956;2023-12-04T03:19:21;0.90;99.90
61896;DHT22;47835;52.778;5.956;2023-12-04T03:21:46;0.90;99.90
61896;DHT22;47835;52.778;5.956;2023-12-04T03:24:12;0.90;99.90
61896;DHT22;47835;52.778;5.956;2023-12-04T03:26:37;0.90;99.90
61896;DHT22;47835;52.778;5.956;2023-12-04T03:29:03;0.90;99.90
61896;DHT22;47835;52.778;5.956;2023-12-04T03:31:29;0.90;99.90
61896;DHT22;47835;52.778;5.956;2023-12-04T03:33:56;0.90;99.90
61896;DHT22;47835;52.778;5.956;2023-12-04T03:36:21;0.90;99.90
61896;DHT22;47835;52.778;5.956;2023-12-04T03:38:47;0.90;99.90
61896;DHT22;47835;52.778;5.956;2023-12-04T03:41:16;0.90;99.90
61896;DHT22;47835;52.778;5.956;2023-12-04T03:43:42;1.00;99.90
61896;DHT22;47835;52.778;5.956;2023-12-04T03:46:08;1.00;99.90
61896;DHT22;47835;52.778;5.956;2023-12-04T03:48:34;0.90;99.90
61896;DHT22;47835;52.778;5.956;2023-12-04T03:50:59;0.90;99.90
61896;DHT22;47835;52.778;5.956;2023-12-04T03:53:26;0.90;99.90
61896;DHT22;47835;52.778;5.956;2023-12-04T03:55:52;0.90;99.90
61896;DHT22;47835;52.778;5.956;2023-12-04T03:58:17;0.90;99.90
61896;DHT22;47835;52.778;5.956;2023-12-04T04:00:43;0.90;99.90
61896;DHT22;47835;52.778;5.956;2023-12-04T04:03:09;0.90;99.90
61896;DHT22;47835;52.778;5.956;2023-12-04T04:05:35;0.90;99.90
61896;DHT22;47835;52.778;5.956;2023-12-04T04:08:02;0.90;99.90
61896;DHT22;47835;52.778;5.956;2023-12-04T04:10:28;1.00;99.90
61896;DHT22;47835;52.778;5.956;2023-12-04T04:12:53;0.90;99.90
61896;DHT22;47835;52.778;5.956;2023-12-04T04:15:19;1.00;99.90
61896;DHT22;47835;52.778;5.956;2023-12-04T04:17:45;0.90;99.90
61896;DHT22;47835;52.778;5.956;2023-12-04T04:20:11;1.00;99.90
61896;DHT22;47835;52.778;5.956;2023-12-04T04:22:37;1.00;99.90
61896;DHT22;47835;52.778;5.956;2023-12-04T04:25:06;1.00;99.90
61896;DHT22;47835;52.778;5.956;2023-12-04T04:27:32;1.00;99.90
61896;DHT22;47835;52.778;5.956;2023-12-04T04:29:58;1.00;99.90
61896;DHT22;47835;52.778;5.956;2023-12-04T04:32:23;1.00;99.90
61896;DHT22;47835;52.778;5.956;2023-12-04T04:34:49;1.00;99.90
61896;DHT22;47835;52.778;5.956;2023-12-04T04:37:15;1.00;99.90
61896;DHT22;47835;52.778;5.956;2023-12-04T04:39:41;1.00;99.90
61896;DHT22;47835;52.778;5.956;2023-12-04T04:42:06;1.00;99.90
61896;DHT22;47835;52.778;5.956;2023-12-04T04:44:32;1.00;99.90
61896;DHT22;47835;52.778;5.956;2023-12-04T04:46:58;1.00;99.90
61896;DHT22;47835;52.778;5.956;2023-12-04T04:49:23;1.00;99.90
61896;DHT22;47835;52.778;5.956;2023-12-04T04:51:49;1.00;99.90
61896;DHT22;47835;52.778;5.956;2023-12-04T04:54:14;1.00;99.90
61896;DHT22;47835;52.778;5.956;2023-12-04T04:56:40;1.00;99.90
61896;DHT22;47835;52.778;5.956;2023-12-04T04:59:06;1.00;99.90
61896;DHT22;47835;52.778;5.956;2023-12-04T05:01:32;1.00;99.90
61896;DHT22;47835;52.778;5.956;2023-12-04T05:03:57;1.00;99.90
61896;DHT22;47835;52.778;5.956;2023-12-04T05:06:23;1.00;99.90
61896;DHT22;47835;52.778;5.956;2023-12-04T05:08:49;1.00;99.90
61896;DHT22;47835;52.778;5.956;2023-12-04T05:11:18;1.00;99.90
61896;DHT22;47835;52.778;5.956;2023-12-04T05:13:45;1.00;99.90
61896;DHT22;47835;52.778;5.956;2023-12-04T05:16:11;1.00;99.90
61896;DHT22;47835;52.778;5.956;2023-12-04T05:18:39;1.00;99.90
61896;DHT22;47835;52.778;5.956;2023-12-04T05:21:11;1.00;99.90
61896;DHT22;47835;52.778;5.956;2023-12-04T05:23:59;1.00;99.90
61896;DHT22;47835;52.778;5.956;2023-12-04T05:26:25;1.00;99.90
61896;DHT22;47835;52.778;5.956;2023-12-04T05:28:53;1.00;99.90
61896;DHT22;47835;52.778;5.956;2023-12-04T05:31:24;1.00;99.90
61896;DHT22;47835;52.778;5.956;2023-12-04T05:33:50;1.00;99.90
61896;DHT22;47835;52.778;5.956;2023-12-04T05:36:16;1.00;99.90
61896;DHT22;47835;52.778;5.956;2023-12-04T05:38:41;1.00;99.90
61896;DHT22;47835;52.778;5.956;2023-12-04T05:41:07;1.00;99.90
61896;DHT22;47835;52.778;5.956;2023-12-04T05:43:33;1.00;99.90
61896;DHT22;47835;52.778;5.956;2023-12-04T05:45:58;1.00;99.90
61896;DHT22;47835;52.778;5.956;2023-12-04T05:48:24;1.00;99.90
61896;DHT22;47835;52.778;5.956;2023-12-04T05:50:55;1.00;99.90
61896;DHT22;47835;52.778;5.956;2023-12-04T05:53:21;1.00;99.90
61896;DHT22;47835;52.778;5.956;2023-12-04T05:55:46;1.00;99.90
61896;DHT22;47835;52.778;5.956;2023-12-04T05:58:12;1.00;99.90
61896;DHT22;47835;52.778;5.956;2023-12-04T06:00:38;1.00;99.90
61896;DHT22;47835;52.778;5.956;2023-12-04T06:03:03;1.00;99.90
61896;DHT22;47835;52.778;5.956;2023-12-04T06:05:29;0.90;99.90
61896;DHT22;47835;52.778;5.956;2023-12-04T06:07:54;0.90;99.90
61896;DHT22;47835;52.778;5.956;2023-12-04T06:10:20;0.90;99.90
61896;DHT22;47835;52.778;5.956;2023-12-04T06:12:46;0.90;99.90
61896;DHT22;47835;52.778;5.956;2023-12-04T06:15:11;0.90;99.90
61896;DHT22;47835;52.778;5.956;2023-12-04T06:17:37;0.90;99.90
61896;DHT22;47835;52.778;5.956;2023-12-04T06:20:03;0.90;99.90
61896;DHT22;47835;52.778;5.956;2023-12-04T06:22:29;0.90;99.90
61896;DHT22;47835;52.778;5.956;2023-12-04T06:24:55;0.90;99.90
61896;DHT22;47835;52.778;5.956;2023-12-04T06:27:21;0.90;99.90
61896;DHT22;47835;52.778;5.956;2023-12-04T06:29:48;0.90;99.90
61896;DHT22;47835;52.778;5.956;2023-12-04T06:32:14;0.90;99.90
61896;DHT22;47835;52.778;5.956;2023-12-04T06:34:40;0.90;99.90
61896;DHT22;47835;52.778;5.956;2023-12-04T06:37:13;0.90;99.90
61896;DHT22;47835;52.778;5.956;2023-12-04T06:39:39;0.90;99.90
61896;DHT22;47835;52.778;5.956;2023-12-04T06:42:06;0.90;99.90
61896;DHT22;47835;52.778;5.956;2023-12-04T06:44:33;0.90;99.90
61896;DHT22;47835;52.778;5.956;2023-12-04T06:47:00;0.90;99.90
61896;DHT22;47835;52.778;5.956;2023-12-04T06:49:32;0.90;99.90
61896;DHT22;47835;52.778;5.956;2023-12-04T06:51:59;0.90;99.90
61896;DHT22;47835;52.778;5.956;2023-12-04T06:54:24;0.90;99.90
61896;DHT22;47835;52.778;5.956;2023-12-04T06:56:50;0.90;99.90
61896;DHT22;47835;52.778;5.956;2023-12-04T06:59:17;0.90;99.90
61896;DHT22;47835;52.778;5.956;2023-12-04T07:01:43;0.90;99.90
61896;DHT22;47835;52.778;5.956;2023-12-04T07:04:08;1.00;99.90
61896;DHT22;47835;52.778;5.956;2023-12-04T07:06:38;1.00;99.90
61896;DHT22;47835;52.778;5.956;2023-12-04T07:09:04;1.00;99.90
61896;DHT22;47835;52.778;5.956;2023-12-04T07:11:30;1.00;99.90
61896;DHT22;47835;52.778;5.956;2023-12-04T07:13:56;1.00;99.90
61896;DHT22;47835;52.778;5.956;2023-12-04T07:16:21;1.00;99.90
61896;DHT22;47835;52.778;5.956;2023-12-04T07:18:47;1.00;99.90
61896;DHT22;47835;52.778;5.956;2023-12-04T07:21:13;1.00;99.90
61896;DHT22;47835;52.778;5.956;2023-12-04T07:23:38;1.00;99.90
61896;DHT22;47835;52.778;5.956;2023-12-04T07:26:04;1.00;99.90
61896;DHT22;47835;52.778;5.956;2023-12-04T07:28:32;1.00;99.90
61896;DHT22;47835;52.778;5.956;2023-12-04T07:30:58;1.00;99.90
61896;DHT22;47835;52.778;5.956;2023-12-04T07:33:23;1.00;99.90
61896;DHT22;47835;52.778;5.956;2023-12-04T07:35:49;1.00;99.90
61896;DHT22;47835;52.778;5.956;2023-12-04T07:38:16;1.00;99.90
61896;DHT22;47835;52.778;5.956;2023-12-04T07:40:42;1.00;99.90
61896;DHT22;47835;52.778;5.956;2023-12-04T07:43:07;1.00;99.90
61896;DHT22;47835;52.778;5.956;2023-12-04T07:45:33;1.00;99.90
61896;DHT22;47835;52.778;5.956;2023-12-04T07:48:00;1.00;99.90
61896;DHT22;47835;52.778;5.956;2023-12-04T07:50:25;1.00;99.90
61896;DHT22;47835;52.778;5.956;2023-12-04T07:52:51;1.00;99.90
61896;DHT22;47835;52.778;5.956;2023-12-04T07:55:17;1.00;99.90
61896;DHT22;47835;52.778;5.956;2023-12-04T07:57:42;1.00;99.90
61896;DHT22;47835;52.778;5.956;2023-12-04T08:00:08;1.00;99.90
61896;DHT22;47835;52.778;5.956;2023-12-04T08:02:34;1.00;99.90
61896;DHT22;47835;52.778;5.956;2023-12-04T08:05:00;1.00;99.90
61896;DHT22;47835;52.778;5.956;2023-12-04T08:07:25;1.00;99.90
61896;DHT22;47835;52.778;5.956;2023-12-04T08:09:51;1.00;99.90
61896;DHT22;47835;52.778;5.956;2023-12-04T08:12:18;1.00;99.90
61896;DHT22;47835;52.778;5.956;2023-12-04T08:14:43;1.00;99.90
61896;DHT22;47835;52.778;5.956;2023-12-04T08:17:09;1.10;99.90
61896;DHT22;47835;52.778;5.956;2023-12-04T08:19:34;1.10;99.90
61896;DHT22;47835;52.778;5.956;2023-12-04T08:22:00;1.10;99.90
61896;DHT22;47835;52.778;5.956;2023-12-04T08:24:26;1.10;99.90
61896;DHT22;47835;52.778;5.956;2023-12-04T08:26:51;1.10;99.90
61896;DHT22;47835;52.778;5.956;2023-12-04T08:29:17;1.10;99.90
61896;DHT22;47835;52.778;5.956;2023-12-04T08:31:43;1.10;99.90
61896;DHT22;47835;52.778;5.956;2023-12-04T08:34:08;1.10;99.90
61896;DHT22;47835;52.778;5.956;2023-12-04T08:36:34;1.10;99.90
61896;DHT22;47835;52.778;5.956;2023-12-04T08:39:00;1.10;99.90
61896;DHT22;47835;52.778;5.956;2023-12-04T08:41:25;1.10;99.90
61896;DHT22;47835;52.778;5.956;2023-12-04T08:43:54;1.10;99.90
61896;DHT22;47835;52.778;5.956;2023-12-04T08:46:20;1.10;99.90
61896;DHT22;47835;52.778;5.956;2023-12-04T08:48:46;1.20;99.90
61896;DHT22;47835;52.778;5.956;2023-12-04T08:51:18;1.20;99.90
61896;DHT22;47835;52.778;5.956;2023-12-04T08:53:44;1.20;99.90
61896;DHT22;47835;52.778;5.956;2023-12-04T08:56:10;1.20;99.90
61896;DHT22;47835;52.778;5.956;2023-12-04T08:58:36;1.20;99.90
61896;DHT22;47835;52.778;5.956;2023-12-04T09:01:02;1.20;99.90
61896;DHT22;47835;52.778;5.956;2023-12-04T09:03:30;1.20;99.90
61896;DHT22;47835;52.778;5.956;2023-12-04T09:05:57;1.20;99.90
61896;DHT22;47835;52.778;5.956;2023-12-04T09:08:23;1.30;99.90
61896;DHT22;47835;52.778;5.956;2023-12-04T09:10:51;1.30;99.90
61896;DHT22;47835;52.778;5.956;2023-12-04T09:13:17;1.30;99.90
61896;DHT22;47835;52.778;5.956;2023-12-04T09:15:42;1.30;99.90
61896;DHT22;47835;52.778;5.956;2023-12-04T09:18:08;1.40;99.90
61896;DHT22;47835;52.778;5.956;2023-12-04T09:20:34;1.40;99.90
61896;DHT22;47835;52.778;5.956;2023-12-04T09:23:00;1.40;99.90
61896;DHT22;47835;52.778;5.956;2023-12-04T09:25:25;1.40;99.90
61896;DHT22;47835;52.778;5.956;2023-12-04T09:27:51;1.50;99.90
61896;DHT22;47835;52.778;5.956;2023-12-04T09:30:17;1.50;99.90
61896;DHT22;47835;52.778;5.956;2023-12-04T09:32:43;1.50;99.90
61896;DHT22;47835;52.778;5.956;2023-12-04T09:35:09;1.60;99.90
61896;DHT22;47835;52.778;5.956;2023-12-04T09:37:35;1.60;99.90
61896;DHT22;47835;52.778;5.956;2023-12-04T09:40:00;1.60;99.90
61896;DHT22;47835;52.778;5.956;2023-12-04T09:42:26;1.60;99.90
61896;DHT22;47835;52.778;5.956;2023-12-04T09:44:53;1.60;99.90
61896;DHT22;47835;52.778;5.956;2023-12-04T09:47:20;1.60;99.90
61896;DHT22;47835;52.778;5.956;2023-12-04T09:49:45;1.60;99.90
61896;DHT22;47835;52.778;5.956;2023-12-04T09:52:11;1.60;99.90
61896;DHT22;47835;52.778;5.956;2023-12-04T09:54:37;1.60;99.90
61896;DHT22;47835;52.778;5.956;2023-12-04T09:57:05;1.60;99.90
61896;DHT22;47835;52.778;5.956;2023-12-04T09:59:31;1.60;99.90
61896;DHT22;47835;52.778;5.956;2023-12-04T10:01:57;1.60;99.90
61896;DHT22;47835;52.778;5.956;2023-12-04T10:04:23;1.70;99.90
61896;DHT22;47835;52.778;5.956;2023-12-04T10:06:52;1.70;99.90
61896;DHT22;47835;52.778;5.956;2023-12-04T10:09:19;1.60;99.90
61896;DHT22;47835;52.778;5.956;2023-12-04T10:11:45;1.60;99.90
61896;DHT22;47835;52.778;5.956;2023-12-04T10:14:21;1.60;99.90
61896;DHT22;47835;52.778;5.956;2023-12-04T10:16:47;1.70;99.90
61896;DHT22;47835;52.778;5.956;2023-12-04T10:21:47;1.70;99.90
61896;DHT22;47835;52.778;5.956;2023-12-04T10:24:30;1.70;99.90
61896;DHT22;47835;52.778;5.956;2023-12-04T10:26:56;1.60;99.90
61896;DHT22;47835;52.778;5.956;2023-12-04T10:29:22;1.70;99.90
61896;DHT22;47835;52.778;5.956;2023-12-04T10:31:50;1.70;99.90
61896;DHT22;47835;52.778;5.956;2023-12-04T10:34:18;1.70;99.90
61896;DHT22;47835;52.778;5.956;2023-12-04T10:36:45;1.70;99.90
61896;DHT22;47835;52.778;5.956;2023-12-04T10:39:11;1.80;99.90
61896;DHT22;47835;52.778;5.956;2023-12-04T10:41:38;1.80;99.90
61896;DHT22;47835;52.778;5.956;2023-12-04T10:44:04;1.80;99.90
61896;DHT22;47835;52.778;5.956;2023-12-04T10:46:30;1.90;99.90
61896;DHT22;47835;52.778;5.956;2023-12-04T10:48:57;1.80;99.90
61896;DHT22;47835;52.778;5.956;2023-12-04T10:51:23;1.90;99.90
61896;DHT22;47835;52.778;5.956;2023-12-04T10:53:49;1.90;99.90
61896;DHT22;47835;52.778;5.956;2023-12-04T10:56:20;1.90;99.90
61896;DHT22;47835;52.778;5.956;2023-12-04T10:58:51;1.90;99.90
61896;DHT22;47835;52.778;5.956;2023-12-04T11:01:19;1.90;99.90
61896;DHT22;47835;52.778;5.956;2023-12-04T11:03:48;1.90;99.90
61896;DHT22;47835;52.778;5.956;2023-12-04T11:06:16;1.90;99.90
61896;DHT22;47835;52.778;5.956;2023-12-04T11:08:42;1.90;99.90
61896;DHT22;47835;52.778;5.956;2023-12-04T11:11:13;2.00;99.90
61896;DHT22;47835;52.778;5.956;2023-12-04T11:13:41;2.00;99.90
61896;DHT22;47835;52.778;5.956;2023-12-04T11:16:30;2.00;99.90
61896;DHT22;47835;52.778;5.956;2023-12-04T11:19:10;2.00;99.90
61896;DHT22;47835;52.778;5.956;2023-12-04T11:21:39;2.00;99.90
61896;DHT22;47835;52.778;5.956;2023-12-04T11:24:06;2.00;99.90
61896;DHT22;47835;52.778;5.956;2023-12-04T11:26:32;2.00;99.90
61896;DHT22;47835;52.778;5.956;2023-12-04T11:28:59;2.10;99.90
61896;DHT22;47835;52.778;5.956;2023-12-04T11:31:25;2.00;99.90
61896;DHT22;47835;52.778;5.956;2023-12-04T11:33:54;2.10;99.90
61896;DHT22;47835;52.778;5.956;2023-12-04T11:36:27;2.10;99.90
61896;DHT22;47835;52.778;5.956;2023-12-04T11:38:53;2.10;99.90
61896;DHT22;47835;52.778;5.956;2023-12-04T11:41:20;2.10;99.90
61896;DHT22;47835;52.778;5.956;2023-12-04T11:43:46;2.10;99.90
61896;DHT22;47835;52.778;5.956;2023-12-04T11:46:25;2.20;99.90
61896;DHT22;47835;52.778;5.956;2023-12-04T11:48:56;2.20;99.90
61896;DHT22;47835;52.778;5.956;2023-12-04T11:54:17;2.20;99.90
61896;DHT22;47835;52.778;5.956;2023-12-04T11:59:39;2.20;99.90
61896;DHT22;47835;52.778;5.956;2023-12-04T12:02:26;2.20;99.90
61896;DHT22;47835;52.778;5.956;2023-12-04T12:05:29;2.20;99.90
61896;DHT22;47835;52.778;5.956;2023-12-04T12:12:07;2.30;99.90
61896;DHT22;47835;52.778;5.956;2023-12-04T12:14:56;2.20;99.90
61896;DHT22;47835;52.778;5.956;2023-12-04T12:17:34;2.20;99.90
61896;DHT22;47835;52.778;5.956;2023-12-04T12:20:14;2.30;99.90
61896;DHT22;47835;52.778;5.956;2023-12-04T12:22:43;2.20;99.90
61896;DHT22;47835;52.778;5.956;2023-12-04T12:25:22;2.20;99.90
61896;DHT22;47835;52.778;5.956;2023-12-04T12:28:02;2.30;99.90
61896;DHT22;47835;52.778;5.956;2023-12-04T12:30:37;2.20;99.90
61896;DHT22;47835;52.778;5.956;2023-12-04T12:33:02;2.20;99.90
61896;DHT22;47835;52.778;5.956;2023-12-04T12:35:28;2.20;99.90
61896;DHT22;47835;52.778;5.956;2023-12-04T12:37:55;2.20;99.90
61896;DHT22;47835;52.778;5.956;2023-12-04T12:40:21;2.20;99.90
61896;DHT22;47835;52.778;5.956;2023-12-04T12:42:47;2.20;99.90
61896;DHT22;47835;52.778;5.956;2023-12-04T12:45:14;2.30;99.90
61896;DHT22;47835;52.778;5.956;2023-12-04T12:47:43;2.20;99.90
61896;DHT22;47835;52.778;5.956;2023-12-04T12:50:09;2.20;99.90
61896;DHT22;47835;52.778;5.956;2023-12-04T12:52:39;2.30;99.90
61896;DHT22;47835;52.778;5.956;2023-12-04T12:55:05;2.30;99.90
61896;DHT22;47835;52.778;5.956;2023-12-04T12:57:32;2.30;99.90
61896;DHT22;47835;52.778;5.956;2023-12-04T12:59:58;2.30;99.90
61896;DHT22;47835;52.778;5.956;2023-12-04T13:02:23;2.30;99.90
61896;DHT22;47835;52.778;5.956;2023-12-04T13:04:50;2.30;99.90
61896;DHT22;47835;52.778;5.956;2023-12-04T13:07:16;2.30;99.90
61896;DHT22;47835;52.778;5.956;2023-12-04T13:09:43;2.30;99.90
61896;DHT22;47835;52.778;5.956;2023-12-04T13:12:09;2.30;99.90
61896;DHT22;47835;52.778;5.956;2023-12-04T13:14:35;2.30;99.90
61896;DHT22;47835;52.778;5.956;2023-12-04T13:17:02;2.30;99.90
61896;DHT22;47835;52.778;5.956;2023-12-04T13:19:28;2.30;99.90
61896;DHT22;47835;52.778;5.956;2023-12-04T13:21:53;2.30;99.90
61896;DHT22;47835;52.778;5.956;2023-12-04T13:24:19;2.30;99.90
61896;DHT22;47835;52.778;5.956;2023-12-04T13:26:45;2.30;99.90
61896;DHT22;47835;52.778;5.956;2023-12-04T13:29:12;2.30;99.90
61896;DHT22;47835;52.778;5.956;2023-12-04T13:31:41;2.30;99.90
61896;DHT22;47835;52.778;5.956;2023-12-04T13:34:07;2.30;99.90
61896;DHT22;47835;52.778;5.956;2023-12-04T13:36:34;2.30;99.90
61896;DHT22;47835;52.778;5.956;2023-12-04T13:39:00;2.30;99.90
61896;DHT22;47835;52.778;5.956;2023-12-04T13:41:25;2.30;99.90
61896;DHT22;47835;52.778;5.956;2023-12-04T13:44:09;2.20;99.90
61896;DHT22;47835;52.778;5.956;2023-12-04T13:46:37;2.20;99.90
61896;DHT22;47835;52.778;5.956;2023-12-04T13:49:03;2.30;99.90
61896;DHT22;47835;52.778;5.956;2023-12-04T13:51:28;2.30;99.90
61896;DHT22;47835;52.778;5.956;2023-12-04T13:53:54;2.20;99.90
61896;DHT22;47835;52.778;5.956;2023-12-04T13:56:34;2.30;99.90
61896;DHT22;47835;52.778;5.956;2023-12-04T13:59:18;2.30;99.90
61896;DHT22;47835;52.778;5.956;2023-12-04T14:01:46;2.20;99.90
61896;DHT22;47835;52.778;5.956;2023-12-04T14:04:12;2.30;99.90
61896;DHT22;47835;52.778;5.956;2023-12-04T14:06:37;2.30;99.90
61896;DHT22;47835;52.778;5.956;2023-12-04T14:09:03;2.30;99.90
61896;DHT22;47835;52.778;5.956;2023-12-04T14:11:36;2.40;99.90
61896;DHT22;47835;52.778;5.956;2023-12-04T14:14:02;2.40;99.90
61896;DHT22;47835;52.778;5.956;2023-12-04T14:16:29;2.40;99.90
61896;DHT22;47835;52.778;5.956;2023-12-04T14:18:55;2.40;99.90
61896;DHT22;47835;52.778;5.956;2023-12-04T14:21:20;2.40;99.90
61896;DHT22;47835;52.778;5.956;2023-12-04T14:23:46;2.40;99.90
61896;DHT22;47835;52.778;5.956;2023-12-04T14:26:12;2.40;99.90
61896;DHT22;47835;52.778;5.956;2023-12-04T14:28:40;2.40;99.90
61896;DHT22;47835;52.778;5.956;2023-12-04T14:31:06;2.40;99.90
61896;DHT22;47835;52.778;5.956;2023-12-04T14:33:33;2.40;99.90
61896;DHT22;47835;52.778;5.956;2023-12-04T14:35:58;2.40;99.90
61896;DHT22;47835;52.778;5.956;2023-12-04T14:38:24;2.40;99.90
61896;DHT22;47835;52.778;5.956;2023-12-04T14:40:50;2.40;99.90
61896;DHT22;47835;52.778;5.956;2023-12-04T14:43:16;2.30;99.90
61896;DHT22;47835;52.778;5.956;2023-12-04T14:45:42;2.30;99.90
61896;DHT22;47835;52.778;5.956;2023-12-04T14:48:07;2.30;99.90
61896;DHT22;47835;52.778;5.956;2023-12-04T14:50:34;2.30;99.90
61896;DHT22;47835;52.778;5.956;2023-12-04T14:53:04;2.30;99.90
61896;DHT22;47835;52.778;5.956;2023-12-04T14:55:53;2.30;99.90
61896;DHT22;47835;52.778;5.956;2023-12-04T14:58:38;2.20;99.90
61896;DHT22;47835;52.778;5.956;2023-12-04T15:01:12;2.20;99.90
61896;DHT22;47835;52.778;5.956;2023-12-04T15:03:44;2.20;99.90
61896;DHT22;47835;52.778;5.956;2023-12-04T15:06:18;2.20;99.90
61896;DHT22;47835;52.778;5.956;2023-12-04T15:09:04;2.10;99.90
61896;DHT22;47835;52.778;5.956;2023-12-04T15:11:48;2.10;99.90
61896;DHT22;47835;52.778;5.956;2023-12-04T15:14:16;2.00;99.90
61896;DHT22;47835;52.778;5.956;2023-12-04T15:17:01;2.00;99.90
61896;DHT22;47835;52.778;5.956;2023-12-04T15:19:44;2.00;99.90
61896;DHT22;47835;52.778;5.956;2023-12-04T15:22:39;2.10;99.90
61896;DHT22;47835;52.778;5.956;2023-12-04T15:25:05;2.10;99.90
61896;DHT22;47835;52.778;5.956;2023-12-04T15:27:37;2.10;99.90
61896;DHT22;47835;52.778;5.956;2023-12-04T15:30:03;2.00;99.90
61896;DHT22;47835;52.778;5.956;2023-12-04T15:32:30;2.00;99.90
61896;DHT22;47835;52.778;5.956;2023-12-04T15:34:56;2.00;99.90
61896;DHT22;47835;52.778;5.956;2023-12-04T15:37:21;2.00;99.90
61896;DHT22;47835;52.778;5.956;2023-12-04T15:39:47;2.00;99.90
61896;DHT22;47835;52.778;5.956;2023-12-04T15:42:13;2.00;99.90
61896;DHT22;47835;52.778;5.956;2023-12-04T15:44:38;2.00;99.90
61896;DHT22;47835;52.778;5.956;2023-12-04T15:47:04;2.00;99.90
61896;DHT22;47835;52.778;5.956;2023-12-04T15:49:30;2.00;99.90
61896;DHT22;47835;52.778;5.956;2023-12-04T15:51:56;2.00;99.90
61896;DHT22;47835;52.778;5.956;2023-12-04T15:54:21;2.00;99.90
61896;DHT22;47835;52.778;5.956;2023-12-04T15:56:47;2.00;99.90
61896;DHT22;47835;52.778;5.956;2023-12-04T15:59:13;2.00;99.90